Time;durP1;ratioP1;P1;durP2;ratioP2;P2;SDS_P1;SDS_P2;PMS_P1;PMS_P2;Temp;Humidity;BMP_temperature;BMP_pressure;BME280_temperature;BME280_humidity;BME280_pressure;Samples;Min_cycle;Max_cycle;Signal;HPM_P1;HPM_P2
2023/06/27 00:01:00;;;;;;;6.23;2.10;;;18.30;37.30;;;;;;5048285;28;20190;-78
2023/06/27 00:03:26;;;;;;;5.47;2.03;;;18.30;38.60;;;;;;5051530;28;20440;-77
2023/06/27 00:05:52;;;;;;;5.03;2.20;;;18.30;41.60;;;;;;5051944;28;20193;-78
2023/06/27 00:08:17;;;;;;;5.20;2.97;;;18.20;43.60;;;;;;5051103;28;20203;-78
2023/06/27 00:10:43;;;;;;;7.00;2.50;;;18.20;46.10;;;;;;5050896;28;20186;-78
2023/06/27 00:13:15;;;;;;;4.47;1.90;;;18.20;48.40;;;;;;5050992;28;20251;-77
2023/06/27 00:15:41;;;;;;;2.83;1.83;;;18.20;50.80;;;;;;5053040;28;20259;-78
2023/06/27 00:18:07;;;;;;;3.23;2.10;;;18.20;53.10;;;;;;5049944;28;20889;-78
2023/06/27 00:20:34;;;;;;;6.37;2.47;;;18.10;55.20;;;;;;5055060;28;20185;-78
2023/06/27 00:23:16;;;;;;;4.80;2.03;;;18.10;58.80;;;;;;5054366;28;20177;-77
2023/06/27 00:25:42;;;;;;;5.20;2.60;;;18.10;68.70;;;;;;5049629;28;20433;-78
2023/06/27 00:28:07;;;;;;;3.13;2.73;;;18.10;68.20;;;;;;5053611;28;20463;-78
2023/06/27 00:30:33;;;;;;;6.57;2.00;;;18.10;73.60;;;;;;5054231;28;20461;-78
2023/06/27 00:32:58;;;;;;;6.70;2.77;;;18.10;83.90;;;;;;5053248;28;20254;-78
2023/06/27 00:35:24;;;;;;;3.70;2.60;;;18.10;90.80;;;;;;5049791;28;20588;-79
2023/06/27 00:37:49;;;;;;;6.03;2.53;;;18.10;94.70;;;;;;5054081;28;20201;-79
2023/06/27 00:40:16;;;;;;;8.30;2.43;;;18.10;99.90;;;;;;5053611;28;20208;-78
2023/06/27 00:42:41;;;;;;;9.80;2.77;;;18.10;99.90;;;;;;5053265;28;20209;-78
2023/06/27 00:45:07;;;;;;;3.50;2.23;;;18.10;99.90;;;;;;5052033;28;20438;-78
2023/06/27 00:47:33;;;;;;;3.10;2.43;;;18.00;99.90;;;;;;5053988;28;20217;-77
2023/06/27 00:49:59;;;;;;;4.27;2.43;;;18.00;99.90;;;;;;5052951;28;20474;-78
2023/06/27 00:52:25;;;;;;;6.60;2.50;;;18.00;99.90;;;;;;5048368;28;20251;-80
2023/06/27 00:54:52;;;;;;;6.07;2.47;;;18.00;99.90;;;;;;5052014;28;20440;-77
2023/06/27 00:57:17;;;;;;;2.60;1.93;;;18.10;99.90;;;;;;5050572;28;20452;-78
2023/06/27 00:59:44;;;;;;;5.23;2.70;;;18.00;99.90;;;;;;5034344;28;20799;-78
2023/06/27 01:02:11;;;;;;;5.43;2.73;;;18.00;99.90;;;;;;5048517;28;20189;-78
2023/06/27 01:04:39;;;;;;;4.07;2.50;;;18.00;99.90;;;;;;5052792;28;20436;-77
2023/06/27 01:07:10;;;;;;;4.50;2.40;;;18.00;99.90;;;;;;5053723;28;21097;-77
2023/06/27 01:09:51;;;;;;;6.90;3.50;;;18.00;99.90;;;;;;5053631;28;20494;-78
2023/06/27 01:12:40;;;;;;;3.80;2.70;;;18.00;99.90;;;;;;5052936;28;20550;-78
2023/06/27 01:15:07;;;;;;;4.17;2.70;;;17.90;99.90;;;;;;5050510;28;20424;-77
2023/06/27 01:17:35;;;;;;;3.70;2.70;;;17.90;99.90;;;;;;5053656;28;20539;-78
2023/06/27 01:20:02;;;;;;;8.50;3.13;;;17.90;99.90;;;;;;5049805;28;20815;-78
2023/06/27 01:22:35;;;;;;;6.30;2.57;;;17.90;99.90;;;;;;5053214;28;20428;-77
2023/06/27 01:25:02;;;;;;;6.73;3.37;;;17.90;99.90;;;;;;5053963;28;20847;-78
2023/06/27 01:27:28;;;;;;;5.70;3.03;;;17.80;99.90;;;;;;5052484;28;20534;-78
2023/06/27 01:29:54;;;;;;;7.10;2.90;;;17.90;99.90;;;;;;5051560;28;20550;-79
2023/06/27 01:32:42;;;;;;;5.33;3.00;;;17.80;99.90;;;;;;5053249;28;20182;-78
2023/06/27 01:35:23;;;;;;;4.17;3.00;;;17.80;99.90;;;;;;5052404;28;20798;-78
2023/06/27 01:37:54;;;;;;;5.13;3.07;;;17.80;99.90;;;;;;5050830;28;20466;-77
2023/06/27 01:40:21;;;;;;;5.10;3.07;;;17.80;99.90;;;;;;5055083;28;20776;-78
2023/06/27 01:42:53;;;;;;;5.23;2.80;;;17.80;99.90;;;;;;5052504;28;20428;-78
2023/06/27 01:45:19;;;;;;;7.10;3.10;;;17.70;99.90;;;;;;5051577;28;20813;-78
2023/06/27 01:47:45;;;;;;;4.60;3.10;;;17.70;99.90;;;;;;5052686;28;21081;-78
2023/06/27 01:50:12;;;;;;;7.37;3.10;;;17.70;99.90;;;;;;5051020;28;20539;-78
2023/06/27 01:52:38;;;;;;;6.67;3.30;;;17.70;99.90;;;;;;5053915;28;20178;-78
2023/06/27 01:55:03;;;;;;;9.27;3.83;;;17.60;99.90;;;;;;5052948;28;20454;-79
2023/06/27 01:57:29;;;;;;;3.00;2.60;;;17.60;99.90;;;;;;5032228;28;20212;-77
2023/06/27 01:59:55;;;;;;;3.83;2.83;;;17.60;99.90;;;;;;5050892;28;20526;-78
2023/06/27 02:02:21;;;;;;;3.50;3.10;;;17.60;99.90;;;;;;5053176;28;20561;-78
2023/06/27 02:04:46;;;;;;;5.50;2.87;;;17.50;99.90;;;;;;5052648;28;20569;-78
2023/06/27 02:07:12;;;;;;;4.20;2.53;;;17.50;99.90;;;;;;5052271;28;20232;-78
2023/06/27 02:09:37;;;;;;;6.77;3.77;;;17.50;99.90;;;;;;5052263;28;20201;-77
2023/06/27 02:12:04;;;;;;;5.67;2.53;;;17.40;99.90;;;;;;5048146;28;20260;-78
2023/06/27 02:14:32;;;;;;;6.80;3.00;;;17.40;99.90;;;;;;5033814;28;20189;-78
2023/06/27 02:16:58;;;;;;;4.77;2.73;;;17.30;99.90;;;;;;5052385;28;20447;-78
2023/06/27 02:19:24;;;;;;;5.23;3.23;;;17.30;99.90;;;;;;5052867;28;20933;-77
2023/06/27 02:21:50;;;;;;;5.10;3.23;;;17.20;99.90;;;;;;5034966;28;20195;-78
2023/06/27 02:24:16;;;;;;;8.20;3.17;;;17.20;99.90;;;;;;5052271;28;20196;-78
2023/06/27 02:26:42;;;;;;;6.00;3.07;;;17.20;99.90;;;;;;5052645;28;20471;-78
2023/06/27 02:29:08;;;;;;;4.00;2.60;;;17.10;99.90;;;;;;5048083;28;20981;-77
2023/06/27 02:31:33;;;;;;;7.20;3.17;;;17.10;99.90;;;;;;5051468;28;20451;-78
2023/06/27 02:34:00;;;;;;;7.73;3.30;;;17.00;99.90;;;;;;5052042;28;20208;-78
2023/06/27 02:36:27;;;;;;;7.03;3.50;;;17.00;99.90;;;;;;5051677;28;20178;-77
2023/06/27 02:38:54;;;;;;;6.13;2.80;;;17.00;99.90;;;;;;5052512;28;20888;-78
2023/06/27 02:41:21;;;;;;;5.83;3.23;;;17.00;99.90;;;;;;5052039;28;20937;-78
2023/06/27 02:43:46;;;;;;;5.17;3.63;;;17.00;99.90;;;;;;5050900;28;20431;-78
2023/06/27 02:46:12;;;;;;;3.70;3.10;;;17.00;99.90;;;;;;5051682;28;20964;-78
2023/06/27 02:48:37;;;;;;;4.77;2.77;;;17.00;99.90;;;;;;5048471;28;20209;-78
2023/06/27 02:51:03;;;;;;;5.17;2.93;;;17.00;99.90;;;;;;5050193;28;20267;-78
2023/06/27 02:53:28;;;;;;;5.73;3.10;;;17.00;99.90;;;;;;5049754;28;20186;-78
2023/06/27 02:55:56;;;;;;;8.23;3.00;;;17.00;99.90;;;;;;5051614;28;20243;-78
2023/06/27 02:58:22;;;;;;;6.93;3.00;;;17.00;99.90;;;;;;5051057;28;20606;-77
2023/06/27 03:00:47;;;;;;;6.20;3.40;;;17.00;99.90;;;;;;5051811;28;20431;-78
2023/06/27 03:03:13;;;;;;;6.07;2.87;;;17.00;99.90;;;;;;5047507;28;21616;-78
2023/06/27 03:05:38;;;;;;;4.50;2.77;;;17.00;99.90;;;;;;5053131;28;20196;-78
2023/06/27 03:08:04;;;;;;;10.97;2.70;;;17.00;99.90;;;;;;5051682;28;20215;-78
2023/06/27 03:10:29;;;;;;;8.70;3.10;;;17.00;99.90;;;;;;5052025;28;20178;-77
2023/06/27 03:12:55;;;;;;;3.87;2.50;;;17.10;1.00;;;;;;5052369;28;20184;-78
2023/06/27 03:15:20;;;;;;;6.13;3.00;;;17.10;1.00;;;;;;5049806;28;20279;-77
2023/06/27 03:17:46;;;;;;;5.57;3.30;;;17.10;1.00;;;;;;5049743;28;20284;-78
2023/06/27 03:20:12;;;;;;;7.07;3.07;;;17.10;1.00;;;;;;5051991;28;20189;-78
2023/06/27 03:22:37;;;;;;;5.77;3.37;;;17.10;1.00;;;;;;5048474;28;20189;-78
2023/06/27 03:25:03;;;;;;;5.63;2.53;;;17.10;1.00;;;;;;5051562;28;20212;-78
2023/06/27 03:27:28;;;;;;;6.10;2.60;;;17.10;1.00;;;;;;5049269;28;20214;-77
2023/06/27 03:29:54;;;;;;;4.60;2.87;;;17.10;1.00;;;;;;5050338;28;20565;-79
2023/06/27 03:32:19;;;;;;;6.07;3.43;;;17.10;1.00;;;;;;5052037;28;20186;-79
2023/06/27 03:34:47;;;;;;;3.83;2.53;;;17.10;1.00;;;;;;5053106;28;20196;-79
2023/06/27 03:37:12;;;;;;;5.13;3.10;;;17.10;1.00;;;;;;5053398;28;20178;-78
2023/06/27 03:39:38;;;;;;;6.17;2.97;;;17.00;1.00;;;;;;5048732;28;20964;-78
2023/06/27 03:42:04;;;;;;;6.73;2.93;;;17.00;1.00;;;;;;5051442;28;20217;-78
2023/06/27 03:44:31;;;;;;;7.60;2.97;;;17.00;1.00;;;;;;5051292;28;20967;-78
2023/06/27 03:46:57;;;;;;;5.30;3.13;;;17.00;1.00;;;;;;5051864;28;20494;-77
2023/06/27 03:49:22;;;;;;;8.43;4.03;;;17.00;1.00;;;;;;5052306;28;20503;-78
2023/06/27 03:51:48;;;;;;;8.87;3.93;;;17.00;1.00;;;;;;5055044;28;20192;-79
2023/06/27 03:54:13;;;;;;;3.83;2.90;;;17.00;1.00;;;;;;5051448;28;20199;-77
2023/06/27 03:56:39;;;;;;;7.23;3.40;;;17.10;1.00;;;;;;5054884;28;20177;-79
2023/06/27 03:59:05;;;;;;;6.00;3.20;;;17.10;1.00;;;;;;5053739;28;20583;-78
2023/06/27 04:01:30;;;;;;;4.83;3.27;;;17.10;1.00;;;;;;5054796;28;20534;-78
2023/06/27 04:03:56;;;;;;;12.23;3.50;;;17.10;1.00;;;;;;5054074;28;20213;-78
2023/06/27 04:06:21;;;;;;;10.33;3.60;;;17.10;1.00;;;;;;5055139;28;20186;-78
2023/06/27 04:08:47;;;;;;;5.07;2.60;;;17.10;1.00;;;;;;5055414;28;20209;-78
2023/06/27 04:11:12;;;;;;;11.90;2.90;;;17.10;1.00;;;;;;5049121;28;20808;-78
2023/06/27 04:13:38;;;;;;;8.40;3.00;;;17.20;1.00;;;;;;5053044;28;20189;-78
2023/06/27 04:16:04;;;;;;;8.70;3.20;;;17.20;1.00;;;;;;5054867;28;20241;-78
2023/06/27 04:18:30;;;;;;;10.43;3.40;;;17.20;1.00;;;;;;5054295;28;20227;-77
2023/06/27 04:20:57;;;;;;;8.93;3.27;;;17.20;1.00;;;;;;5036397;28;20464;-78
2023/06/27 04:23:22;;;;;;;9.07;4.00;;;17.10;1.00;;;;;;5052572;28;20436;-77
2023/06/27 04:26:03;;;;;;;9.03;3.33;;;17.10;1.00;;;;;;5053845;28;20440;-78
2023/06/27 04:28:30;;;;;;;9.43;3.30;;;17.10;1.00;;;;;;5050353;28;20263;-77
2023/06/27 04:30:56;;;;;;;8.83;3.80;;;17.10;1.00;;;;;;5052623;28;20431;-78
2023/06/27 04:33:22;;;;;;;5.30;3.40;;;17.10;1.00;;;;;;5053614;28;21180;-78
2023/06/27 04:35:48;;;;;;;6.30;3.37;;;17.10;1.00;;;;;;5053750;28;20185;-77
2023/06/27 04:38:14;;;;;;;5.17;3.17;;;17.10;1.00;;;;;;5052947;28;20547;-77
2023/06/27 04:40:41;;;;;;;7.60;3.43;;;17.10;1.00;;;;;;5051579;28;20240;-77
2023/06/27 04:43:07;;;;;;;8.87;3.67;;;17.20;1.00;;;;;;5049120;28;20490;-77
2023/06/27 04:45:33;;;;;;;8.27;2.77;;;17.20;1.00;;;;;;5034756;28;20881;-78
2023/06/27 04:47:58;;;;;;;5.73;3.60;;;17.30;1.00;;;;;;5049144;28;20511;-78
2023/06/27 04:50:24;;;;;;;12.20;3.67;;;17.30;1.00;;;;;;5051180;28;20792;-80
2023/06/27 04:52:50;;;;;;;11.17;3.97;;;17.30;1.00;;;;;;5051930;28;20231;-77
2023/06/27 04:55:15;;;;;;;6.83;3.33;;;17.40;1.00;;;;;;5052453;28;20190;-76
2023/06/27 04:57:41;;;;;;;8.80;3.30;;;17.40;1.00;;;;;;5052770;28;20287;-78
2023/06/27 05:00:11;;;;;;;7.20;3.47;;;17.50;1.00;;;;;;5060357;28;20436;-78
2023/06/27 05:02:37;;;;;;;7.93;3.17;;;17.60;1.00;;;;;;5052548;28;20905;-78
2023/06/27 05:05:04;;;;;;;9.47;2.87;;;17.70;1.00;;;;;;5049488;28;20536;-77
2023/06/27 05:07:30;;;;;;;6.50;3.30;;;17.90;1.00;;;;;;5054373;28;20212;-78
2023/06/27 05:09:56;;;;;;;7.20;2.40;;;17.90;1.00;;;;;;5053330;28;21096;-79
2023/06/27 05:12:21;;;;;;;8.37;3.50;;;17.90;1.00;;;;;;5052220;28;20190;-78
2023/06/27 05:14:47;;;;;;;9.00;2.77;;;18.00;1.00;;;;;;5053911;28;20215;-78
2023/06/27 05:17:12;;;;;;;8.73;3.87;;;18.00;1.00;;;;;;5053058;28;20194;-78
2023/06/27 05:19:38;;;;;;;10.70;3.53;;;18.10;1.00;;;;;;5052524;28;20559;-78
2023/06/27 05:22:03;;;;;;;6.53;3.27;;;18.20;99.90;;;;;;5051008;28;20185;-77
2023/06/27 05:24:29;;;;;;;7.23;3.40;;;18.30;99.90;;;;;;5053114;28;20187;-78
2023/06/27 05:26:55;;;;;;;9.73;3.63;;;18.30;99.90;;;;;;5053704;28;20182;-77
2023/06/27 05:29:20;;;;;;;8.67;2.70;;;18.40;99.90;;;;;;5053659;28;20368;-78
2023/06/27 05:31:46;;;;;;;12.63;3.30;;;18.50;99.90;;;;;;5052906;28;20181;-78
2023/06/27 05:34:12;;;;;;;10.53;2.93;;;18.70;99.90;;;;;;5036974;28;20225;-77
2023/06/27 05:36:38;;;;;;;11.50;3.00;;;18.80;99.90;;;;;;5054952;28;20265;-78
2023/06/27 05:39:03;;;;;;;8.93;3.83;;;19.00;99.90;;;;;;5052031;28;21024;-79
2023/06/27 05:41:30;;;;;;;7.33;3.40;;;19.10;99.90;;;;;;5053387;28;20180;-79
2023/06/27 05:43:56;;;;;;;14.20;3.80;;;19.20;99.90;;;;;;5053939;28;20184;-78
2023/06/27 05:46:21;;;;;;;8.27;2.77;;;19.40;99.90;;;;;;5053758;28;20532;-78
2023/06/27 05:48:47;;;;;;;7.83;3.13;;;19.50;99.90;;;;;;5053507;28;20204;-78
2023/06/27 05:51:12;;;;;;;7.80;3.00;;;19.60;99.90;;;;;;5052504;28;20270;-80
2023/06/27 05:53:39;;;;;;;9.30;3.70;;;19.70;99.90;;;;;;5053789;28;20216;-79
2023/06/27 05:56:05;;;;;;;11.00;3.50;;;19.90;99.90;;;;;;5047205;28;20601;-78
2023/06/27 05:58:31;;;;;;;8.27;3.33;;;20.00;99.90;;;;;;5049906;28;20466;-78
2023/06/27 06:00:56;;;;;;;6.93;2.97;;;20.10;99.90;;;;;;5051445;28;20742;-78
2023/06/27 06:03:23;;;;;;;11.17;2.87;;;20.20;99.90;;;;;;5047942;28;20526;-77
2023/06/27 06:05:48;;;;;;;7.00;2.60;;;20.30;99.90;;;;;;5049086;28;20188;-76
2023/06/27 06:08:14;;;;;;;11.50;3.10;;;20.70;99.90;;;;;;5048592;28;20474;-77
2023/06/27 06:10:39;;;;;;;10.00;3.17;;;21.00;99.90;;;;;;5047899;28;20182;-77
2023/06/27 06:13:05;;;;;;;12.03;3.30;;;21.50;99.90;;;;;;5044974;28;20188;-77
2023/06/27 06:15:30;;;;;;;8.87;2.90;;;22.10;99.90;;;;;;5049270;28;20182;-77
2023/06/27 06:17:56;;;;;;;9.43;3.50;;;23.20;99.90;;;;;;5048669;28;20197;-77
2023/06/27 06:20:21;;;;;;;7.70;2.80;;;25.40;99.90;;;;;;5048773;28;20181;-77
2023/06/27 06:22:47;;;;;;;7.63;2.60;;;28.70;99.90;;;;;;5047347;28;20181;-77
2023/06/27 06:25:12;;;;;;;8.40;2.63;;;31.60;99.90;;;;;;5049958;28;20217;-78
2023/06/27 06:27:38;;;;;;;8.53;2.03;;;34.10;96.60;;;;;;5049364;28;20339;-78
2023/06/27 06:30:04;;;;;;;13.83;2.53;;;36.10;90.10;;;;;;5049511;28;20210;-78
2023/06/27 06:32:29;;;;;;;9.07;2.50;;;37.80;72.70;;;;;;5047654;28;20190;-78
2023/06/27 06:34:55;;;;;;;6.40;2.43;;;39.30;57.10;;;;;;5050386;28;20247;-78
2023/06/27 06:37:20;;;;;;;9.67;3.10;;;40.50;44.50;;;;;;5049019;28;20229;-78
2023/06/27 06:39:46;;;;;;;4.77;2.10;;;41.70;34.60;;;;;;5051424;28;20178;-79
2023/06/27 06:42:11;;;;;;;7.30;2.57;;;42.60;27.20;;;;;;5050473;28;20189;-78
2023/06/27 06:44:37;;;;;;;7.93;2.80;;;43.40;31.50;;;;;;5051239;28;20274;-77
2023/06/27 06:47:03;;;;;;;8.43;2.70;;;44.10;15.10;;;;;;5051841;28;20193;-78
2023/06/27 06:49:28;;;;;;;5.23;2.90;;;44.60;9.70;;;;;;5047909;28;20201;-78
2023/06/27 06:51:54;;;;;;;14.80;4.17;;;45.30;5.00;;;;;;5051853;28;20190;-79
2023/06/27 06:54:20;;;;;;;7.00;2.40;;;45.80;1.00;;;;;;5041904;28;20193;-79
2023/06/27 06:56:45;;;;;;;8.23;2.57;;;46.30;1.00;;;;;;5047169;28;20220;-78
2023/06/27 06:59:11;;;;;;;7.87;2.63;;;46.80;1.00;;;;;;5048879;28;20210;-79
2023/06/27 07:01:36;;;;;;;7.23;2.50;;;47.30;1.00;;;;;;5050753;28;20196;-79
2023/06/27 07:04:02;;;;;;;6.50;2.10;;;47.90;1.00;;;;;;5030411;28;20192;-79
2023/06/27 07:06:28;;;;;;;5.90;2.57;;;48.60;1.00;;;;;;5048738;28;20181;-76
2023/06/27 07:08:54;;;;;;;6.30;2.00;;;49.50;1.00;;;;;;5043040;28;20505;-76
2023/06/27 07:11:20;;;;;;;7.67;2.87;;;50.40;1.00;;;;;;5044746;28;20490;-76
2023/06/27 07:13:45;;;;;;;6.57;2.70;;;50.90;1.00;;;;;;5044498;28;20189;-77
2023/06/27 07:16:11;;;;;;;6.20;2.83;;;51.40;1.00;;;;;;5045094;28;20244;-76
2023/06/27 07:18:36;;;;;;;6.00;2.13;;;51.90;1.00;;;;;;5044588;28;20205;-76
2023/06/27 07:21:02;;;;;;;7.60;2.25;;;52.40;1.00;;;;;;5045589;28;20202;-76
2023/06/27 07:23:27;;;;;;;7.20;2.85;;;52.60;1.00;;;;;;5046601;28;20273;-77
2023/06/27 07:25:53;;;;;;;6.60;3.03;;;53.00;1.00;;;;;;5037941;28;20197;-77
2023/06/27 07:28:20;;;;;;;7.15;2.50;;;53.40;1.00;;;;;;5052357;28;20609;-77
2023/06/27 07:30:46;;;;;;;5.47;2.65;;;53.70;1.00;;;;;;5052306;28;20534;-77
2023/06/27 07:33:12;;;;;;;4.35;2.40;;;54.00;1.00;;;;;;5051364;28;20262;-76
2023/06/27 07:35:38;;;;;;;4.85;1.95;;;54.10;1.00;;;;;;5048472;28;20263;-77
2023/06/27 07:38:03;;;;;;;7.60;3.08;;;54.40;1.00;;;;;;5052023;28;20330;-77
2023/06/27 07:40:29;;;;;;;7.22;2.58;;;54.40;1.00;;;;;;5052783;28;20189;-76
2023/06/27 07:42:54;;;;;;;6.03;2.45;;;54.50;1.00;;;;;;5049728;28;20191;-77
2023/06/27 07:45:20;;;;;;;6.68;2.35;;;54.50;1.00;;;;;;5052004;28;20177;-76
2023/06/27 07:47:46;;;;;;;8.13;2.42;;;54.60;1.00;;;;;;5052355;28;20235;-77
2023/06/27 07:50:11;;;;;;;5.35;2.38;;;54.60;1.00;;;;;;5051215;28;20207;-77
2023/06/27 07:52:37;;;;;;;8.10;2.67;;;54.80;1.00;;;;;;5051155;28;20262;-76
2023/06/27 07:55:02;;;;;;;5.65;2.28;;;54.30;1.00;;;;;;5050869;28;20187;-77
2023/06/27 07:57:28;;;;;;;8.05;2.30;;;54.10;1.00;;;;;;5048133;28;20618;-77
2023/06/27 07:59:53;;;;;;;5.78;2.30;;;53.70;1.00;;;;;;5046916;28;20288;-76
2023/06/27 08:02:19;;;;;;;4.40;2.15;;;53.70;1.00;;;;;;5051588;28;20207;-76
2023/06/27 08:04:44;;;;;;;7.20;2.77;;;53.00;1.00;;;;;;5053453;28;20662;-76
2023/06/27 08:07:10;;;;;;;5.90;2.60;;;50.90;1.00;;;;;;5052932;28;20188;-76
2023/06/27 08:09:35;;;;;;;6.67;2.37;;;51.00;1.00;;;;;;5049887;28;20189;-77
2023/06/27 08:12:01;;;;;;;7.10;2.87;;;51.60;1.00;;;;;;5047226;28;20192;-76
2023/06/27 08:14:27;;;;;;;5.73;2.40;;;51.80;1.00;;;;;;5050197;28;20193;-76
2023/06/27 08:16:53;;;;;;;6.82;2.55;;;52.10;1.00;;;;;;5039073;28;20595;-76
2023/06/27 08:19:18;;;;;;;6.28;2.20;;;52.40;1.00;;;;;;5043356;28;20221;-78
2023/06/27 08:21:44;;;;;;;6.40;2.53;;;53.10;1.00;;;;;;5047391;28;20185;-76
2023/06/27 08:24:09;;;;;;;10.90;2.60;;;50.40;1.00;;;;;;5045572;28;20185;-77
2023/06/27 08:26:35;;;;;;;5.37;2.33;;;50.40;1.00;;;;;;5047654;28;20240;-77
2023/06/27 08:29:00;;;;;;;6.93;2.30;;;50.80;1.00;;;;;;5049852;28;20216;-76
2023/06/27 08:31:25;;;;;;;8.63;2.83;;;48.50;1.00;;;;;;5050197;28;20196;-76
2023/06/27 08:33:51;;;;;;;8.40;2.40;;;45.00;1.00;;;;;;5043842;28;20979;-75
2023/06/27 08:36:16;;;;;;;8.20;2.00;;;42.70;1.00;;;;;;5026840;28;20195;-76
2023/06/27 08:38:42;;;;;;;5.87;2.70;;;42.70;1.00;;;;;;5045263;28;20209;-75
2023/06/27 08:41:09;;;;;;;8.73;2.43;;;42.40;1.00;;;;;;5050771;28;20560;-78
2023/06/27 08:43:35;;;;;;;8.47;2.87;;;42.70;1.00;;;;;;5032658;28;20185;-76
2023/06/27 08:46:04;;;;;;;12.20;3.10;;;42.80;1.00;;;;;;5046308;28;20975;-75
2023/06/27 08:48:30;;;;;;;8.80;2.90;;;41.80;1.00;;;;;;5050490;28;20258;-75
2023/06/27 08:50:57;;;;;;;5.87;2.57;;;39.80;1.00;;;;;;5051104;28;20514;-78
2023/06/27 08:53:26;;;;;;;7.17;2.63;;;38.10;1.00;;;;;;5045953;28;20182;-78
2023/06/27 08:56:01;;;;;;;9.43;2.70;;;36.70;1.00;;;;;;5049833;28;20519;-78
2023/06/27 08:58:49;;;;;;;5.27;2.80;;;36.10;1.00;;;;;;5049367;28;20451;-77
2023/06/27 09:01:15;;;;;;;9.00;2.73;;;36.20;1.00;;;;;;5044428;28;20445;-77
2023/06/27 09:03:40;;;;;;;9.20;2.90;;;36.00;1.00;;;;;;5051160;28;20562;-77
2023/06/27 09:06:07;;;;;;;5.87;2.60;;;35.70;1.00;;;;;;5050542;28;20189;-78
2023/06/27 09:08:34;;;;;;;6.90;2.60;;;35.10;1.00;;;;;;5047625;28;20228;-77
2023/06/27 09:11:00;;;;;;;11.03;2.60;;;34.60;1.00;;;;;;5050477;28;20439;-77
2023/06/27 09:13:27;;;;;;;6.37;2.47;;;34.30;1.00;;;;;;5050529;28;20439;-77
2023/06/27 09:15:53;;;;;;;8.73;2.90;;;33.90;1.00;;;;;;5042951;28;20805;-78
2023/06/27 09:18:19;;;;;;;6.57;2.50;;;35.00;1.00;;;;;;5041849;28;21406;-77
2023/06/27 09:20:44;;;;;;;6.53;2.60;;;34.90;1.00;;;;;;5050508;28;20551;-78
2023/06/27 09:23:11;;;;;;;6.90;2.63;;;34.60;1.00;;;;;;5048664;28;20198;-78
2023/06/27 09:25:37;;;;;;;4.07;1.93;;;34.60;1.00;;;;;;5038963;28;20181;-77
2023/06/27 09:28:16;;;;;;;8.33;2.37;;;34.90;1.00;;;;;;5047912;28;20452;-78
2023/06/27 09:30:53;;;;;;;7.10;2.40;;;36.00;1.00;;;;;;5037315;28;20178;-78
2023/06/27 09:33:19;;;;;;;6.23;2.60;;;37.00;1.00;;;;;;5037997;28;20440;-77
2023/06/27 09:35:45;;;;;;;8.40;2.40;;;37.50;1.00;;;;;;5049969;28;20661;-77
2023/06/27 09:38:11;;;;;;;9.17;2.50;;;36.20;1.00;;;;;;5050226;28;20220;-77
2023/06/27 09:40:37;;;;;;;6.40;2.10;;;34.80;1.00;;;;;;5050568;28;20169;-77
2023/06/27 09:43:05;;;;;;;5.70;2.90;;;33.80;1.00;;;;;;5049434;28;20201;-77
2023/06/27 09:45:30;;;;;;;10.20;3.00;;;32.90;1.00;;;;;;5042087;28;20450;-77
2023/06/27 09:47:58;;;;;;;5.83;2.50;;;32.50;1.00;;;;;;5025746;28;20841;-78
2023/06/27 09:50:28;;;;;;;11.57;2.57;;;32.00;1.00;;;;;;5042844;28;20185;-77
2023/06/27 09:52:58;;;;;;;6.53;3.13;;;31.90;1.00;;;;;;5046813;28;20499;-77
2023/06/27 09:55:23;;;;;;;6.67;2.87;;;31.60;1.00;;;;;;5046019;28;20444;-77
2023/06/27 09:57:49;;;;;;;8.60;2.90;;;31.10;1.00;;;;;;5049760;28;20813;-77
2023/06/27 10:00:20;;;;;;;6.17;2.40;;;30.60;1.00;;;;;;5048064;28;20215;-77
2023/06/27 10:02:54;;;;;;;9.37;3.60;;;30.10;1.00;;;;;;5049143;28;20231;-77
2023/06/27 10:05:21;;;;;;;10.33;3.10;;;29.60;1.00;;;;;;5043307;28;20423;-77
2023/06/27 10:07:49;;;;;;;5.40;2.50;;;29.30;1.00;;;;;;5038843;28;20444;-77
2023/06/27 10:10:16;;;;;;;5.80;2.80;;;29.10;1.00;;;;;;5038436;28;20805;-77
2023/06/27 10:12:42;;;;;;;6.87;2.23;;;29.50;1.00;;;;;;5037633;28;20806;-77
2023/06/27 10:15:09;;;;;;;8.00;2.37;;;30.20;1.00;;;;;;5044758;28;20450;-77
2023/06/27 10:17:35;;;;;;;7.70;2.17;;;30.30;1.00;;;;;;5035894;28;20453;-77
2023/06/27 10:20:02;;;;;;;10.10;2.20;;;30.40;1.00;;;;;;5041361;28;20464;-77
2023/06/27 10:22:31;;;;;;;8.07;2.40;;;30.40;1.00;;;;;;5043498;28;20531;-78
2023/06/27 10:25:04;;;;;;;4.43;2.20;;;30.40;1.00;;;;;;5037578;28;20447;-77
2023/06/27 10:27:33;;;;;;;6.70;2.00;;;30.30;1.00;;;;;;5042452;28;20498;-77
2023/06/27 10:30:04;;;;;;;5.60;1.93;;;30.40;1.00;;;;;;5036454;28;20451;-76
2023/06/27 10:32:43;;;;;;;5.27;1.70;;;30.50;1.00;;;;;;5043280;28;20431;-77
2023/06/27 10:35:24;;;;;;;4.30;1.90;;;30.60;1.00;;;;;;5043357;28;20972;-77
2023/06/27 10:38:06;;;;;;;6.30;2.30;;;31.30;1.00;;;;;;5032508;28;20448;-77
2023/06/27 10:41:06;;;;;;;6.40;1.70;;;33.00;1.00;;;;;;5042795;28;20454;-77
2023/06/27 10:43:47;;;;;;;4.63;1.50;;;33.20;1.00;;;;;;5038664;28;20435;-77
2023/06/27 10:46:26;;;;;;;4.60;2.40;;;32.90;1.00;;;;;;5041984;28;20432;-77
2023/06/27 10:49:06;;;;;;;10.00;2.73;;;32.40;1.00;;;;;;5038530;28;20501;-77
2023/06/27 10:51:42;;;;;;;5.20;2.43;;;32.00;1.00;;;;;;5040361;28;20440;-77
2023/06/27 10:54:08;;;;;;;6.30;2.30;;;31.60;1.00;;;;;;5037865;28;20463;-77
2023/06/27 10:56:56;;;;;;;12.70;1.90;;;31.40;1.00;;;;;;5035615;28;20432;-77
2023/06/27 10:59:23;;;;;;;5.70;2.00;;;32.60;1.00;;;;;;5041562;28;20204;-77
2023/06/27 11:02:02;;;;;;;4.27;1.90;;;33.90;1.00;;;;;;5038930;28;20527;-78
2023/06/27 11:04:41;;;;;;;4.07;1.80;;;34.10;1.00;;;;;;5035970;28;20467;-78
2023/06/27 11:07:09;;;;;;;5.43;2.07;;;33.50;1.00;;;;;;5038403;28;20432;-77
2023/06/27 11:09:36;;;;;;;3.80;1.50;;;33.00;1.00;;;;;;5039588;28;20436;-77
2023/06/27 11:12:11;;;;;;;6.33;2.20;;;32.90;1.00;;;;;;5038615;28;20444;-77
2023/06/27 11:14:45;;;;;;;4.60;2.10;;;34.00;1.00;;;;;;5037936;28;20466;-77
2023/06/27 11:17:11;;;;;;;7.53;2.00;;;34.90;1.00;;;;;;5037269;28;20479;-77
2023/06/27 11:19:38;;;;;;;4.57;1.80;;;34.50;1.00;;;;;;5033836;28;20468;-77
2023/06/27 11:22:05;;;;;;;6.70;1.73;;;33.60;1.00;;;;;;5038057;28;20478;-77
2023/06/27 11:24:31;;;;;;;5.10;1.90;;;32.40;1.00;;;;;;5043197;28;20537;-77
2023/06/27 11:27:02;;;;;;;4.50;1.77;;;31.30;1.00;;;;;;5040489;28;20433;-77
2023/06/27 11:29:28;;;;;;;4.27;1.93;;;30.40;1.00;;;;;;5035770;28;20499;-77
2023/06/27 11:31:56;;;;;;;8.23;2.60;;;29.80;1.00;;;;;;5021306;28;20463;-77
2023/06/27 11:34:24;;;;;;;4.90;2.10;;;29.50;1.00;;;;;;5041197;28;20189;-77
2023/06/27 11:36:50;;;;;;;3.70;2.03;;;29.50;1.00;;;;;;5037971;28;20436;-78
2023/06/27 11:39:16;;;;;;;8.10;2.00;;;29.50;1.00;;;;;;5034347;28;20541;-77
2023/06/27 11:41:43;;;;;;;7.70;2.30;;;30.10;1.00;;;;;;5038071;28;20431;-77
2023/06/27 11:44:10;;;;;;;4.30;1.83;;;31.50;1.00;;;;;;5042474;28;20193;-77
2023/06/27 11:46:50;;;;;;;2.63;1.50;;;32.90;1.00;;;;;;5041821;28;20523;-77
2023/06/27 11:49:20;;;;;;;4.30;1.50;;;33.80;1.00;;;;;;5034963;28;20467;-78
2023/06/27 11:51:45;;;;;;;3.13;1.60;;;33.70;1.00;;;;;;5043489;28;20447;-77
2023/06/27 11:54:14;;;;;;;5.33;1.67;;;33.30;1.00;;;;;;5038337;28;20443;-77
2023/06/27 11:56:40;;;;;;;6.10;1.70;;;32.70;1.00;;;;;;5032034;28;20202;-77
2023/06/27 11:59:06;;;;;;;8.23;1.80;;;32.10;1.00;;;;;;5039205;28;21050;-77
2023/06/27 12:01:33;;;;;;;4.43;2.07;;;31.40;1.00;;;;;;5042139;28;20212;-77
2023/06/27 12:03:59;;;;;;;5.53;2.20;;;30.70;1.00;;;;;;5033811;28;20269;-77
2023/06/27 12:06:29;;;;;;;6.50;1.70;;;30.10;1.00;;;;;;5039147;28;20447;-77
2023/06/27 12:08:56;;;;;;;5.07;1.80;;;29.80;1.00;;;;;;5033067;28;20470;-77
2023/06/27 12:11:29;;;;;;;4.97;1.63;;;29.40;1.00;;;;;;5036995;28;20536;-79
2023/06/27 12:13:54;;;;;;;6.30;1.80;;;29.20;1.00;;;;;;5043549;28;20440;-77
2023/06/27 12:16:27;;;;;;;4.10;1.83;;;29.00;1.00;;;;;;5027691;28;21125;-81
2023/06/27 12:19:01;;;;;;;4.60;2.10;;;28.80;1.00;;;;;;5022726;28;20630;-77
2023/06/27 12:21:26;;;;;;;5.97;2.10;;;28.50;1.00;;;;;;5038959;28;20471;-77
2023/06/27 12:23:53;;;;;;;5.70;1.63;;;28.70;1.00;;;;;;5040098;28;20495;-77
2023/06/27 12:26:18;;;;;;;8.17;1.80;;;29.00;1.00;;;;;;5046771;28;20243;-77
2023/06/27 12:28:54;;;;;;;5.00;1.73;;;29.40;1.00;;;;;;5042557;28;20459;-77
2023/06/27 12:31:20;;;;;;;4.60;1.70;;;29.80;1.00;;;;;;5041993;28;20930;-77
2023/06/27 12:33:46;;;;;;;7.33;2.30;;;30.20;1.00;;;;;;5036594;28;20449;-77
2023/06/27 12:36:14;;;;;;;6.03;2.30;;;30.40;1.00;;;;;;5031510;28;20186;-77
2023/06/27 12:38:40;;;;;;;4.60;2.13;;;30.30;1.00;;;;;;5029946;28;20256;-77
2023/06/27 12:41:06;;;;;;;5.00;2.50;;;30.30;1.00;;;;;;5034980;28;20445;-77
2023/06/27 12:43:31;;;;;;;7.23;2.17;;;30.60;1.00;;;;;;5027387;28;20446;-77
2023/06/27 12:46:04;;;;;;;8.50;2.70;;;30.70;1.00;;;;;;5033015;28;20560;-77
2023/06/27 12:48:30;;;;;;;7.43;2.40;;;31.10;1.00;;;;;;5032683;28;20498;-77
2023/06/27 12:50:56;;;;;;;6.60;1.97;;;31.30;1.00;;;;;;5030815;28;20510;-78
2023/06/27 12:53:21;;;;;;;3.03;1.60;;;31.30;1.00;;;;;;5032726;28;20209;-77